createdAt,value
2018-02-01T02:05:35.568Z,95.55
2018-02-01T02:08:03.072Z,94.73
2018-02-01T02:10:30.582Z,95.69
2018-02-01T02:12:58.087Z,95.42
2018-02-01T02:15:25.578Z,95.09
2018-02-01T02:17:53.134Z,95.31
2018-02-01T02:20:20.683Z,95.59
2018-02-01T02:22:48.180Z,95.34
2018-02-01T02:25:15.801Z,95.53
2018-02-01T02:27:43.334Z,95.35
2018-02-01T02:30:10.831Z,94.80
2018-02-01T02:32:38.385Z,95.53
2018-02-01T02:35:05.912Z,96.57
2018-02-01T02:37:33.429Z,95.06
2018-02-01T02:40:00.937Z,95.68
2018-02-01T02:42:28.582Z,95.59
2018-02-01T02:44:56.232Z,96.50
2018-02-01T02:47:23.812Z,96.94
2018-02-01T02:49:51.619Z,96.83
2018-02-01T02:52:19.177Z,95.63
2018-02-01T02:54:46.712Z,95.81
2018-02-01T02:57:14.214Z,96.00
2018-02-01T02:59:41.731Z,96.52
2018-02-01T03:02:09.817Z,96.35
2018-02-01T03:04:37.343Z,96.40
2018-02-01T03:07:04.957Z,96.04
2018-02-01T03:09:32.561Z,95.20
2018-02-01T03:12:00.105Z,96.05
2018-02-01T03:14:27.633Z,94.68
2018-02-01T03:16:55.160Z,94.72
2018-02-01T03:19:22.674Z,94.32
2018-02-01T03:21:50.260Z,93.58
2018-02-01T03:24:17.832Z,93.63
2018-02-01T03:26:45.355Z,94.57
2018-02-01T03:29:12.959Z,93.28
2018-02-01T03:31:40.474Z,92.89
2018-02-01T03:34:07.987Z,93.06
2018-02-01T03:36:35.591Z,94.27
2018-02-01T03:39:03.226Z,93.67
2018-02-01T03:41:30.788Z,94.43
2018-02-01T03:43:58.319Z,92.76
2018-02-01T03:46:25.910Z,92.25
2018-02-01T03:48:53.422Z,93.06
2018-02-01T03:51:22.767Z,93.62
2018-02-01T03:53:50.340Z,93.59
2018-02-01T03:56:17.869Z,93.87
2018-02-01T03:58:45.419Z,93.25
2018-02-01T04:01:13.003Z,93.49
2018-02-01T04:03:40.561Z,93.49
2018-02-01T04:06:08.088Z,93.61
2018-02-01T04:08:35.610Z,94.40
2018-02-01T04:11:03.135Z,94.14
2018-02-01T04:13:30.816Z,94.18
2018-02-01T04:15:58.314Z,93.59
2018-02-01T04:18:25.822Z,93.95
2018-02-01T04:20:53.328Z,93.00
2018-02-01T04:23:20.823Z,93.23
2018-02-01T04:25:48.368Z,93.96
2018-02-01T04:28:15.897Z,93.64
2018-02-01T04:30:43.425Z,93.92
2018-02-01T04:33:11.023Z,94.25
2018-02-01T04:35:38.536Z,94.59
2018-02-01T04:38:06.044Z,93.22
2018-02-01T04:40:33.553Z,93.50
2018-02-01T04:43:01.199Z,94.08
2018-02-01T04:45:28.709Z,94.61
2018-02-01T04:47:56.249Z,93.98
2018-02-01T04:50:23.865Z,94.39
2018-02-01T04:52:51.409Z,95.35
2018-02-01T04:55:18.919Z,94.75
2018-02-01T04:57:46.437Z,94.72
2018-02-01T05:00:13.965Z,95.60
2018-02-01T05:02:41.472Z,94.63
2018-02-01T05:05:09.029Z,94.87
2018-02-01T05:07:36.600Z,95.19
2018-02-01T05:10:04.126Z,96.08
2018-02-01T05:12:31.643Z,95.27
2018-02-01T05:14:59.138Z,95.03
2018-02-01T05:17:26.674Z,95.83
2018-02-01T05:19:54.209Z,95.25
2018-02-01T05:22:21.718Z,95.76
2018-02-01T05:24:49.212Z,95.18
2018-02-01T05:27:16.762Z,95.44
2018-02-01T05:29:44.270Z,95.59
2018-02-01T05:32:11.832Z,95.89
2018-02-01T05:34:39.411Z,96.36
2018-02-01T05:37:06.968Z,96.48
2018-02-01T05:39:36.149Z,96.58
2018-02-01T05:42:04.384Z,96.27
2018-02-01T05:44:31.946Z,95.98
2018-02-01T05:46:59.465Z,96.34
2018-02-01T05:49:26.978Z,96.69
2018-02-01T05:51:54.568Z,96.76
2018-02-01T05:54:22.114Z,96.33
2018-02-01T05:56:49.631Z,96.61
2018-02-01T05:59:17.166Z,96.96
2018-02-01T06:01:44.682Z,98.43
2018-02-01T06:04:12.203Z,97.67
2018-02-01T06:06:39.744Z,96.56
2018-02-01T06:09:07.305Z,96.84
2018-02-01T06:11:34.891Z,96.42
2018-02-01T06:14:02.444Z,95.99
2018-02-01T06:16:30.113Z,96.80
2018-02-01T06:18:57.698Z,95.83
2018-02-01T06:21:25.332Z,96.32
2018-02-01T06:23:52.887Z,96.87
2018-02-01T06:26:20.521Z,95.74
2018-02-01T06:28:48.283Z,95.10
2018-02-01T06:31:15.920Z,94.73
2018-02-01T06:33:43.524Z,94.44
2018-02-01T06:36:11.083Z,95.68
2018-02-01T06:38:38.627Z,94.81
2018-02-01T06:41:06.236Z,95.78
2018-02-01T06:43:33.743Z,95.05
2018-02-01T06:46:01.384Z,95.28
2018-02-01T06:48:28.916Z,94.69
2018-02-01T06:50:56.464Z,95.06
2018-02-01T06:53:24.001Z,95.32
2018-02-01T06:55:51.548Z,95.76
2018-02-01T06:58:19.074Z,95.26
2018-02-01T07:00:47.399Z,95.42
2018-02-01T07:03:14.893Z,94.34
2018-02-01T07:05:42.384Z,94.96
2018-02-01T07:08:09.953Z,95.53
2018-02-01T07:10:37.590Z,95.54
2018-02-01T07:13:05.158Z,95.62
2018-02-01T07:15:32.658Z,95.37
2018-02-01T07:18:00.245Z,95.11
2018-02-01T07:20:27.749Z,94.03
2018-02-01T07:22:55.310Z,93.95
2018-02-01T07:25:22.835Z,94.30
2018-02-01T07:27:50.373Z,94.25
2018-02-01T07:30:17.894Z,93.99
2018-02-01T07:32:45.395Z,94.27
2018-02-01T07:35:12.914Z,93.83
2018-02-01T07:37:40.453Z,93.51
2018-02-01T07:40:08.365Z,92.51
2018-02-01T07:42:35.948Z,91.84
2018-02-01T07:45:03.513Z,92.20
2018-02-01T07:47:31.088Z,91.13
2018-02-01T07:49:58.629Z,89.36
2018-02-01T07:52:26.140Z,86.87
2018-02-01T07:54:53.654Z,87.76
2018-02-01T07:57:21.260Z,85.82
2018-02-01T07:59:48.794Z,85.29
2018-02-01T08:02:16.298Z,84.64
2018-02-01T08:04:43.788Z,84.55
2018-02-01T08:07:11.346Z,83.21
2018-02-01T08:09:38.871Z,83.69
2018-02-01T08:12:06.412Z,82.28
2018-02-01T08:14:33.973Z,82.26
2018-02-01T08:17:01.525Z,78.98
2018-02-01T08:19:29.034Z,78.67
2018-02-01T08:21:56.612Z,78.55
2018-02-01T08:24:24.120Z,76.41
2018-02-01T08:26:51.796Z,75.94
2018-02-01T08:29:19.387Z,76.35
2018-02-01T08:31:46.903Z,73.18
2018-02-01T08:34:14.494Z,68.71
2018-02-01T08:36:42.009Z,68.27
2018-02-01T08:39:09.510Z,66.88
2018-02-01T08:41:37.045Z,69.75
2018-02-01T08:44:04.551Z,71.28
2018-02-01T08:46:32.061Z,69.94
2018-02-01T08:48:59.570Z,71.00
2018-02-01T08:51:27.269Z,70.82
2018-02-01T08:53:54.803Z,72.85
2018-02-01T08:56:22.297Z,72.51
2018-02-01T08:58:49.863Z,70.62
2018-02-01T09:01:17.400Z,69.35
2018-02-01T09:03:44.934Z,71.10
2018-02-01T09:06:12.439Z,69.55
2018-02-01T09:08:39.956Z,66.90
2018-02-01T09:11:07.473Z,66.77
2018-02-01T09:13:35.018Z,66.70
2018-02-01T09:16:02.595Z,66.44
2018-02-01T09:18:30.184Z,60.62
2018-02-01T09:20:57.871Z,64.05
2018-02-01T09:23:25.373Z,65.24
2018-02-01T09:25:52.907Z,66.57
2018-02-01T09:28:20.459Z,64.22
2018-02-01T09:30:47.990Z,67.29
2018-02-01T09:33:15.535Z,65.42
2018-02-01T09:35:43.062Z,63.50
2018-02-01T09:38:10.581Z,63.30
2018-02-01T09:40:38.176Z,64.98
2018-02-01T09:43:06.420Z,62.00
2018-02-01T09:45:33.991Z,63.21
2018-02-01T09:48:01.541Z,65.26
2018-02-01T09:50:29.102Z,65.13
2018-02-01T09:52:56.630Z,64.78
2018-02-01T09:55:24.171Z,65.21
2018-02-01T09:57:51.714Z,63.20
2018-02-01T10:00:19.277Z,63.95
2018-02-01T10:02:46.867Z,65.82
2018-02-01T10:05:14.440Z,66.66
2018-02-01T10:07:42.024Z,70.21
2018-02-01T10:10:09.588Z,68.79
2018-02-01T10:12:37.168Z,67.37
2018-02-01T10:15:04.703Z,70.03
2018-02-01T10:17:32.229Z,70.20
2018-02-01T10:19:59.772Z,70.72
2018-02-01T10:22:27.352Z,71.29
2018-02-01T10:24:54.913Z,72.25
2018-02-01T10:27:22.427Z,71.95
2018-02-01T10:29:49.971Z,74.14
2018-02-01T10:32:17.488Z,75.80
2018-02-01T10:34:45.004Z,74.66
2018-02-01T10:37:12.575Z,73.78
2018-02-01T10:39:40.113Z,72.48
2018-02-01T10:42:07.726Z,73.49
2018-02-01T10:44:35.319Z,73.17
2018-02-01T10:47:02.867Z,74.44
2018-02-01T10:49:30.520Z,74.42
2018-02-01T10:51:58.025Z,72.88
2018-02-01T10:54:25.915Z,74.31
2018-02-01T10:56:53.461Z,73.84
2018-02-01T10:59:21.146Z,74.47
2018-02-01T11:01:48.706Z,75.61
2018-02-01T11:04:16.293Z,75.57
2018-02-01T11:06:43.845Z,77.11
2018-02-01T11:09:11.408Z,75.34
2018-02-01T11:11:38.926Z,76.36
2018-02-01T11:14:06.477Z,76.88
2018-02-01T11:16:33.996Z,74.68
2018-02-01T11:19:01.571Z,75.96
2018-02-01T11:21:29.180Z,75.34
2018-02-01T11:23:56.735Z,75.21
2018-02-01T11:26:24.263Z,74.60
2018-02-01T11:28:51.820Z,75.22
2018-02-01T11:31:19.376Z,75.53
2018-02-01T11:33:46.908Z,76.29
2018-02-01T11:36:14.414Z,75.78
2018-02-01T11:38:41.950Z,75.12
2018-02-01T11:41:09.537Z,75.87
2018-02-01T11:43:37.123Z,73.69
2018-02-01T11:46:04.753Z,74.08
2018-02-01T11:48:32.296Z,74.59
2018-02-01T11:50:59.939Z,72.22
2018-02-01T11:53:27.503Z,72.80
2018-02-01T11:55:55.097Z,73.42
2018-02-01T11:58:22.617Z,74.36
2018-02-01T12:00:50.113Z,71.68
2018-02-01T12:03:17.662Z,73.01
2018-02-01T12:05:45.250Z,73.42
2018-02-01T12:08:12.784Z,73.31
2018-02-01T12:10:40.339Z,72.89
2018-02-01T12:13:07.899Z,72.79
2018-02-01T12:15:35.467Z,71.63
2018-02-01T12:18:02.997Z,72.04
2018-02-01T12:20:30.512Z,71.39
2018-02-01T12:22:58.085Z,71.07
2018-02-01T12:25:25.740Z,71.73
2018-02-01T12:27:53.326Z,71.00
2018-02-01T12:30:21.209Z,71.67
2018-02-01T12:32:48.719Z,70.81
2018-02-01T12:35:16.291Z,69.79
2018-02-01T12:37:43.869Z,70.65
2018-02-01T12:40:11.467Z,70.34
2018-02-01T12:42:39.037Z,70.77
2018-02-01T12:45:06.590Z,70.02
2018-02-01T12:47:34.152Z,70.70
2018-02-01T12:50:01.673Z,70.64
2018-02-01T12:52:29.182Z,71.64
2018-02-01T12:54:56.739Z,70.47
2018-02-01T12:57:24.273Z,70.20
2018-02-01T12:59:51.847Z,69.83
2018-02-01T13:02:19.433Z,70.50
2018-02-01T13:04:46.977Z,70.44
2018-02-01T13:07:14.505Z,68.80
2018-02-01T13:09:42.058Z,70.93
2018-02-01T13:12:09.623Z,70.55
2018-02-01T13:14:37.220Z,69.68
2018-02-01T13:17:04.761Z,69.38
2018-02-01T13:19:32.353Z,69.33
2018-02-01T13:21:59.901Z,69.48
2018-02-01T13:24:27.448Z,67.26
2018-02-01T13:26:55.014Z,68.19
2018-02-01T13:29:22.569Z,69.52
2018-02-01T13:31:50.096Z,69.65
2018-02-01T13:34:17.596Z,69.19
2018-02-01T13:36:45.128Z,69.62
2018-02-01T13:39:12.671Z,69.40
2018-02-01T13:41:40.178Z,68.48
2018-02-01T13:44:07.665Z,68.78
2018-02-01T13:46:35.188Z,69.18
2018-02-01T13:49:02.704Z,69.25
2018-02-01T13:51:30.248Z,69.60
2018-02-01T13:53:57.791Z,70.59
2018-02-01T13:56:26.160Z,71.68
2018-02-01T13:58:53.745Z,71.70
2018-02-01T14:01:21.328Z,72.44
2018-02-01T14:03:48.857Z,68.79
2018-02-01T14:06:16.380Z,68.93
2018-02-01T14:08:43.909Z,69.26
2018-02-01T14:11:11.608Z,70.59
2018-02-01T14:13:39.140Z,70.43
2018-02-01T14:16:06.657Z,70.54
2018-02-01T14:18:34.208Z,72.39
2018-02-01T14:21:01.751Z,71.24
2018-02-01T14:23:29.266Z,71.66
2018-02-01T14:25:56.809Z,72.06
2018-02-01T14:28:24.334Z,72.48
2018-02-01T14:30:51.887Z,74.01
2018-02-01T14:33:19.617Z,72.13
2018-02-01T14:35:47.128Z,72.90
2018-02-01T14:38:14.641Z,71.45
2018-02-01T14:40:42.139Z,72.00
2018-02-01T14:43:09.633Z,70.96
2018-02-01T14:45:37.185Z,70.84
2018-02-01T14:48:04.738Z,72.34
2018-02-01T14:50:32.271Z,70.08
2018-02-01T14:52:59.788Z,71.65
2018-02-01T14:55:27.306Z,70.13
2018-02-01T14:57:54.852Z,70.43
2018-02-01T15:00:22.674Z,70.29
2018-02-01T15:02:50.270Z,70.94
2018-02-01T15:05:17.777Z,71.72
2018-02-01T15:07:45.359Z,70.91
2018-02-01T15:10:12.906Z,70.23
2018-02-01T15:12:40.481Z,71.50
2018-02-01T15:15:07.993Z,70.99
2018-02-01T15:17:35.535Z,70.86
2018-02-01T15:20:03.133Z,71.55
2018-02-01T15:22:31.203Z,73.24
2018-02-01T15:24:58.760Z,71.82
2018-02-01T15:27:26.301Z,72.15
2018-02-01T15:29:53.828Z,74.32
2018-02-01T15:32:22.203Z,72.79
2018-02-01T15:34:49.769Z,72.31
2018-02-01T15:37:17.322Z,72.52
2018-02-01T15:39:44.919Z,72.28
2018-02-01T15:42:12.519Z,72.47
2018-02-01T15:44:40.076Z,72.72
2018-02-01T15:47:07.611Z,73.89
2018-02-01T15:49:35.172Z,73.79
2018-02-01T15:52:02.710Z,74.25
2018-02-01T15:54:30.809Z,74.44
2018-02-01T15:56:58.322Z,75.10
2018-02-01T15:59:25.848Z,73.26
2018-02-01T16:01:53.356Z,74.54
2018-02-01T16:04:20.884Z,73.76
2018-02-01T16:06:48.438Z,75.66
2018-02-01T16:09:15.971Z,74.68
2018-02-01T16:11:43.524Z,77.24
2018-02-01T16:14:11.292Z,76.23
2018-02-01T16:16:38.840Z,75.66
2018-02-01T16:19:06.404Z,75.54
2018-02-01T16:21:33.937Z,76.72
2018-02-01T16:24:01.482Z,76.14
2018-02-01T16:26:29.031Z,77.60
2018-02-01T16:28:56.545Z,76.97
2018-02-01T16:31:24.066Z,77.25
2018-02-01T16:33:51.607Z,77.49
2018-02-01T16:36:19.356Z,76.98
2018-02-01T16:38:46.873Z,76.92
2018-02-01T16:41:14.388Z,77.45
2018-02-01T16:43:41.938Z,75.98
2018-02-01T16:46:09.471Z,76.09
2018-02-01T16:48:37.765Z,77.04
2018-02-01T16:51:05.311Z,75.79
2018-02-01T16:53:32.876Z,77.46
2018-02-01T16:56:00.490Z,76.43
2018-02-01T16:58:28.017Z,75.79
2018-02-01T17:00:55.566Z,75.95
2018-02-01T17:03:23.136Z,76.87
2018-02-01T17:05:50.667Z,75.85
2018-02-01T17:08:18.202Z,76.45
2018-02-01T17:10:45.734Z,76.62
2018-02-01T17:13:13.334Z,76.38
2018-02-01T17:15:40.950Z,75.89
2018-02-01T17:18:08.830Z,74.94
2018-02-01T17:20:36.682Z,75.76
2018-02-01T17:23:04.223Z,74.65
2018-02-01T17:25:31.800Z,74.72
2018-02-01T17:27:59.414Z,74.45
2018-02-01T17:30:26.972Z,75.11
2018-02-01T17:32:54.575Z,76.37
2018-02-01T17:35:22.287Z,74.48
2018-02-01T17:37:49.942Z,73.83
2018-02-01T17:40:17.599Z,73.63
2018-02-01T17:42:45.320Z,72.02
2018-02-01T17:45:12.845Z,72.93
2018-02-01T17:47:40.451Z,72.90
2018-02-01T17:50:08.111Z,72.12
2018-02-01T17:52:35.946Z,73.36
2018-02-01T17:55:03.498Z,72.88
2018-02-01T17:57:31.066Z,71.76
2018-02-01T17:59:58.661Z,72.08
2018-02-01T18:02:26.257Z,73.17
2018-02-01T18:04:53.772Z,72.48
2018-02-01T18:07:21.320Z,72.12
2018-02-01T18:09:48.853Z,72.66
2018-02-01T18:12:16.376Z,73.01
2018-02-01T18:14:43.993Z,73.22
2018-02-01T18:17:14.347Z,72.92
2018-02-01T18:19:41.856Z,73.55
2018-02-01T18:22:09.429Z,72.69
2018-02-01T18:24:37.007Z,74.40
2018-02-01T18:27:04.576Z,73.89
2018-02-01T18:29:32.209Z,74.16
2018-02-01T18:31:59.784Z,73.18
2018-02-01T18:34:27.406Z,74.00
2018-02-01T18:36:55.054Z,74.36
2018-02-01T18:39:22.594Z,74.58
2018-02-01T18:41:50.154Z,73.14
2018-02-01T18:44:17.674Z,72.96
2018-02-01T18:46:45.247Z,73.60
2018-02-01T18:49:12.785Z,72.92
2018-02-01T18:51:40.327Z,73.98
2018-02-01T18:54:08.980Z,74.34
2018-02-01T18:56:36.565Z,75.07
2018-02-01T18:59:04.101Z,74.38
2018-02-01T19:01:31.729Z,72.94
2018-02-01T19:03:59.222Z,74.18
2018-02-01T19:06:26.748Z,73.36
2018-02-01T19:08:54.290Z,74.54
2018-02-01T19:11:21.842Z,73.85
2018-02-01T19:13:49.430Z,74.06
2018-02-01T19:16:16.968Z,74.09
2018-02-01T19:18:44.527Z,74.17
2018-02-01T19:21:12.109Z,74.47
2018-02-01T19:23:39.670Z,74.19
2018-02-01T19:26:07.260Z,75.31
2018-02-01T19:28:34.837Z,75.25
2018-02-01T19:31:02.364Z,74.99
2018-02-01T19:33:29.935Z,76.21
2018-02-01T19:35:57.522Z,75.41
2018-02-01T19:38:25.053Z,76.90
2018-02-01T19:40:52.610Z,75.22
2018-02-01T19:43:20.144Z,75.16
2018-02-01T19:45:47.639Z,75.22
2018-02-01T19:48:15.223Z,75.35
2018-02-01T19:50:42.772Z,75.82
2018-02-01T19:53:10.366Z,76.25
2018-02-01T19:55:37.948Z,77.08
2018-02-01T19:58:05.453Z,77.49
2018-02-01T20:00:32.983Z,78.29
2018-02-01T20:03:00.603Z,78.56
2018-02-01T20:05:28.120Z,79.36
2018-02-01T20:07:55.637Z,79.62
2018-02-01T20:10:23.169Z,79.26
2018-02-01T20:12:50.734Z,79.58
2018-02-01T20:15:18.275Z,79.24
2018-02-01T20:19:41.478Z,79.39
2018-02-01T20:22:09.020Z,79.71
2018-02-01T20:24:36.573Z,79.85
2018-02-01T20:27:04.151Z,79.60
2018-02-01T20:29:31.730Z,80.35
2018-02-01T20:31:59.253Z,79.74
2018-02-01T20:34:26.819Z,80.99
2018-02-01T20:36:54.406Z,81.05
2018-02-01T20:39:21.971Z,80.95
2018-02-01T20:41:49.717Z,81.35
2018-02-01T20:44:17.251Z,81.98
2018-02-01T20:46:44.787Z,83.07
2018-02-01T20:49:12.404Z,84.82
2018-02-01T20:51:40.085Z,87.44
2018-02-01T20:54:08.242Z,91.73
2018-02-01T20:56:36.574Z,94.10
2018-02-01T20:59:04.082Z,94.15
2018-02-01T21:01:31.732Z,95.72
2018-02-01T21:03:59.356Z,95.57
2018-02-01T21:06:26.864Z,96.75
2018-02-01T21:08:54.520Z,97.39
2018-02-01T21:11:22.210Z,96.31
2018-02-01T21:13:49.867Z,97.45
2018-02-01T21:16:17.453Z,98.41
2018-02-01T21:18:45.188Z,97.01
2018-02-01T21:21:12.811Z,97.24
2018-02-01T21:23:40.379Z,97.60
2018-02-01T21:26:07.974Z,97.58
2018-02-01T21:28:35.867Z,97.13
2018-02-01T21:31:03.399Z,96.23
2018-02-01T21:33:30.962Z,96.24
2018-02-01T21:35:58.488Z,96.66
2018-02-01T21:38:26.175Z,96.43
2018-02-01T21:40:54.689Z,95.74
2018-02-01T21:43:22.485Z,95.81
2018-02-01T21:45:50.103Z,95.53
2018-02-01T21:48:17.656Z,95.95
2018-02-01T21:50:45.250Z,95.67
2018-02-01T21:53:12.804Z,95.52
2018-02-01T21:55:40.351Z,94.94
2018-02-01T21:58:07.904Z,96.25
2018-02-01T22:00:35.427Z,95.64
2018-02-01T22:03:02.984Z,95.77
2018-02-01T22:05:30.602Z,95.68
2018-02-01T22:07:58.450Z,95.56
2018-02-01T22:10:26.141Z,95.26
2018-02-01T22:12:53.666Z,95.40
2018-02-01T22:15:21.313Z,95.33
2018-02-01T22:17:48.858Z,94.98
2018-02-01T22:20:16.449Z,95.05
2018-02-01T22:23:11.582Z,95.15
2018-02-01T22:25:39.112Z,95.40
2018-02-01T22:28:06.599Z,95.44
2018-02-01T22:30:34.217Z,95.81
2018-02-01T22:33:01.732Z,95.90
2018-02-01T22:35:29.326Z,96.17
2018-02-01T22:37:57.004Z,96.29
2018-02-01T22:40:24.556Z,95.03
2018-02-01T22:42:52.127Z,96.20
2018-02-01T22:45:19.722Z,96.55
2018-02-01T22:47:47.347Z,96.05
2018-02-01T22:50:14.945Z,95.42
2018-02-01T22:52:42.543Z,95.91
2018-02-01T22:55:10.258Z,96.38
2018-02-01T22:57:37.829Z,96.79
2018-02-01T23:00:05.373Z,96.90
2018-02-01T23:04:59.836Z,97.01
2018-02-01T23:07:27.366Z,96.22
2018-02-01T23:09:55.047Z,96.30
2018-02-01T23:12:22.587Z,96.05
2018-02-01T23:14:50.271Z,96.67
2018-02-01T23:17:17.799Z,96.67
2018-02-01T23:19:45.356Z,96.96
2018-02-01T23:22:12.956Z,97.08
2018-02-01T23:24:40.576Z,97.30
2018-02-01T23:27:08.300Z,95.84
2018-02-01T23:29:35.811Z,96.00
2018-02-01T23:32:03.349Z,96.42
2018-02-01T23:34:30.893Z,96.28
2018-02-01T23:36:58.545Z,95.76
2018-02-01T23:39:26.098Z,94.66
2018-02-01T23:41:53.784Z,94.42
2018-02-01T23:44:21.337Z,94.44
2018-02-01T23:46:48.832Z,94.09
2018-02-01T23:49:16.420Z,94.06
2018-02-01T23:51:44.054Z,93.20
2018-02-01T23:54:11.576Z,92.51
2018-02-01T23:56:39.204Z,92.39
2018-02-01T23:59:06.859Z,92.12
